createdAt,value
2018-08-23T00:00:47.774Z,22.53
2018-08-23T00:01:47.791Z,22.38
2018-08-23T00:02:47.822Z,22.33
2018-08-23T00:03:47.968Z,22.14
2018-08-23T00:04:47.879Z,22.07
2018-08-23T00:05:47.913Z,22.15
2018-08-23T00:06:47.942Z,22.14
2018-08-23T00:07:47.971Z,22.08
2018-08-23T00:08:48.000Z,22.08
2018-08-23T00:09:48.028Z,22.04
2018-08-23T00:10:48.061Z,22.03
2018-08-23T00:11:48.090Z,22.01
2018-08-23T00:12:48.117Z,21.94
2018-08-23T00:13:48.156Z,21.80
2018-08-23T00:14:48.175Z,21.77
2018-08-23T00:15:48.204Z,21.83
2018-08-23T00:16:48.267Z,21.75
2018-08-23T00:17:48.268Z,21.72
2018-08-23T00:18:48.290Z,21.78
2018-08-23T00:19:48.327Z,22.03
2018-08-23T00:20:48.352Z,22.26
2018-08-23T00:21:48.375Z,22.36
2018-08-23T00:22:48.410Z,22.49
2018-08-23T00:23:48.431Z,22.56
2018-08-23T00:24:48.476Z,22.65
2018-08-23T00:25:48.499Z,22.62
2018-08-23T00:26:48.521Z,22.68
2018-08-23T00:27:48.555Z,22.68
2018-08-23T00:28:48.588Z,22.78
2018-08-23T00:29:48.608Z,22.74
2018-08-23T00:30:48.641Z,22.68
2018-08-23T00:31:48.666Z,22.65
2018-08-23T00:32:48.697Z,22.65
2018-08-23T00:33:48.728Z,22.40
2018-08-23T00:34:48.752Z,22.26
2018-08-23T00:35:48.781Z,22.21
2018-08-23T00:36:48.829Z,22.08
2018-08-23T00:37:48.840Z,21.81
2018-08-23T00:38:48.884Z,21.74
2018-08-23T00:39:48.910Z,21.81
2018-08-23T00:40:48.939Z,21.69
2018-08-23T00:41:48.961Z,21.77
2018-08-23T00:42:48.988Z,21.60
2018-08-23T00:43:49.014Z,21.78
2018-08-23T00:44:49.048Z,21.84
2018-08-23T00:45:49.075Z,21.89
2018-08-23T00:46:49.113Z,21.75
2018-08-23T00:47:49.135Z,21.78
2018-08-23T00:48:49.171Z,21.74
2018-08-23T00:49:49.190Z,21.75
2018-08-23T00:50:49.219Z,21.80
2018-08-23T00:51:49.254Z,21.94
2018-08-23T00:52:49.283Z,21.92
2018-08-23T00:53:49.309Z,22.08
2018-08-23T00:54:49.340Z,22.15
2018-08-23T00:55:49.371Z,22.08
2018-08-23T00:56:49.408Z,22.06
2018-08-23T00:57:49.419Z,22.03
2018-08-23T00:58:49.451Z,21.84
2018-08-23T00:59:49.481Z,21.77
2018-08-23T01:00:49.509Z,21.77
2018-08-23T01:01:49.537Z,21.68
2018-08-23T01:02:49.567Z,21.68
2018-08-23T01:03:49.599Z,21.70
2018-08-23T01:04:49.627Z,21.70
2018-08-23T01:05:49.657Z,21.70
2018-08-23T01:06:49.690Z,21.63
2018-08-23T01:07:49.724Z,21.65
2018-08-23T01:08:49.736Z,21.63
2018-08-23T01:09:49.769Z,21.72
2018-08-23T01:10:49.797Z,21.63
2018-08-23T01:11:49.829Z,21.54
2018-08-23T01:12:49.859Z,21.53
2018-08-23T01:13:49.886Z,21.60
2018-08-23T01:14:49.922Z,21.56
2018-08-23T01:15:49.941Z,21.54
2018-08-23T01:16:49.970Z,21.53
2018-08-23T01:17:50.006Z,21.59
2018-08-23T01:18:50.031Z,21.60
2018-08-23T01:19:50.063Z,21.62
2018-08-23T01:20:50.089Z,21.59
2018-08-23T01:21:50.121Z,21.62
2018-08-23T01:22:50.148Z,21.66
2018-08-23T01:23:50.179Z,21.70
2018-08-23T01:24:50.208Z,21.62
2018-08-23T01:25:50.237Z,21.69
2018-08-23T01:26:50.268Z,21.51
2018-08-23T01:27:50.293Z,21.51
2018-08-23T01:28:50.399Z,21.33
2018-08-23T01:29:50.350Z,21.23
2018-08-23T01:30:50.394Z,21.11
2018-08-23T01:31:50.406Z,21.08
2018-08-23T01:32:50.431Z,21.07
2018-08-23T01:33:50.471Z,21.00
2018-08-23T01:34:50.496Z,21.11
2018-08-23T01:35:50.526Z,21.08
2018-08-23T01:36:50.553Z,21.08
2018-08-23T01:37:50.582Z,21.10
2018-08-23T01:38:50.618Z,21.10
2018-08-23T01:39:50.647Z,21.05
2018-08-23T01:40:50.665Z,21.05
2018-08-23T01:41:50.697Z,21.01
2018-08-23T01:42:50.723Z,21.00
2018-08-23T01:43:50.758Z,20.95
2018-08-23T01:44:50.792Z,20.85
2018-08-23T01:45:50.816Z,20.93
2018-08-23T01:46:50.854Z,20.98
2018-08-23T01:47:50.875Z,21.05
2018-08-23T01:48:50.913Z,20.95
2018-08-23T01:49:50.927Z,21.04
2018-08-23T01:50:50.993Z,21.37
2018-08-23T01:51:50.983Z,21.30
2018-08-23T01:52:51.012Z,21.37
2018-08-23T01:53:51.053Z,21.45
2018-08-23T01:54:51.071Z,21.29
2018-08-23T01:55:51.098Z,21.35
2018-08-23T01:56:51.127Z,21.23
2018-08-23T01:57:51.163Z,21.10
2018-08-23T01:58:51.191Z,21.01
2018-08-23T01:59:51.223Z,20.98
2018-08-23T02:00:51.243Z,20.98
2018-08-23T02:01:51.277Z,20.95
2018-08-23T02:02:51.307Z,20.86
2018-08-23T02:03:51.343Z,20.70
2018-08-23T02:04:51.356Z,20.82
2018-08-23T02:05:51.390Z,20.82
2018-08-23T02:06:51.420Z,20.83
2018-08-23T02:07:51.444Z,20.92
2018-08-23T02:08:51.473Z,20.88
2018-08-23T02:09:51.502Z,21.01
2018-08-23T02:10:51.532Z,21.04
2018-08-23T02:11:51.563Z,20.98
2018-08-23T02:12:51.596Z,20.92
2018-08-23T02:13:51.618Z,21.13
2018-08-23T02:14:51.648Z,21.32
2018-08-23T02:15:51.675Z,21.37
2018-08-23T02:16:51.712Z,21.30
2018-08-23T02:17:51.734Z,21.28
2018-08-23T02:18:51.776Z,21.14
2018-08-23T02:19:51.792Z,21.11
2018-08-23T02:20:51.824Z,21.01
2018-08-23T02:21:51.868Z,21.07
2018-08-23T02:22:51.880Z,21.04
2018-08-23T02:23:51.909Z,21.03
2018-08-23T02:24:51.945Z,21.07
2018-08-23T02:25:51.966Z,21.10
2018-08-23T02:26:52.009Z,21.07
2018-08-23T02:27:52.027Z,21.10
2018-08-23T02:28:52.050Z,21.08
2018-08-23T02:29:52.080Z,21.11
2018-08-23T02:30:52.108Z,21.10
2018-08-23T02:31:52.143Z,21.10
2018-08-23T02:32:52.174Z,21.07
2018-08-23T02:33:52.203Z,21.05
2018-08-23T02:34:52.221Z,21.07
2018-08-23T02:35:52.253Z,21.00
2018-08-23T02:36:52.284Z,20.89
2018-08-23T02:37:52.314Z,21.01
2018-08-23T02:38:52.340Z,20.95
2018-08-23T02:39:52.471Z,20.86
2018-08-23T02:40:52.402Z,20.80
2018-08-23T02:41:52.426Z,20.73
2018-08-23T02:42:52.456Z,20.73
2018-08-23T02:43:52.483Z,20.71
2018-08-23T02:44:52.513Z,20.67
2018-08-23T02:45:52.548Z,20.73
2018-08-23T02:46:52.577Z,20.73
2018-08-23T02:47:52.607Z,20.74
2018-08-23T02:48:52.630Z,20.63
2018-08-23T02:49:52.660Z,20.63
2018-08-23T02:50:52.692Z,20.64
2018-08-23T02:51:52.724Z,20.59
2018-08-23T02:52:52.775Z,20.59
2018-08-23T02:53:52.785Z,20.66
2018-08-23T02:54:52.804Z,20.70
2018-08-23T02:55:52.827Z,20.64
2018-08-23T02:56:52.864Z,20.74
2018-08-23T02:57:52.886Z,20.68
2018-08-23T02:58:52.916Z,20.71
2018-08-23T02:59:52.942Z,20.58
2018-08-23T03:00:52.980Z,20.66
2018-08-23T03:01:52.999Z,20.71
2018-08-23T03:02:53.032Z,20.71
2018-08-23T03:03:53.076Z,20.73
2018-08-23T03:04:53.087Z,20.71
2018-08-23T03:05:53.117Z,20.74
2018-08-23T03:06:53.150Z,20.68
2018-08-23T03:07:53.173Z,20.64
2018-08-23T03:08:53.205Z,20.67
2018-08-23T03:09:53.243Z,20.58
2018-08-23T03:10:53.283Z,20.58
2018-08-23T03:11:53.290Z,20.52
2018-08-23T03:12:53.324Z,20.60
2018-08-23T03:13:53.351Z,20.67
2018-08-23T03:14:53.380Z,20.56
2018-08-23T03:15:53.424Z,20.63
2018-08-23T03:16:53.438Z,20.73
2018-08-23T03:17:53.468Z,20.71
2018-08-23T03:18:53.488Z,20.70
2018-08-23T03:19:53.517Z,20.66
2018-08-23T03:20:53.553Z,20.66
2018-08-23T03:21:53.574Z,20.64
2018-08-23T03:22:53.638Z,20.67
2018-08-23T03:23:53.652Z,20.58
2018-08-23T03:24:53.664Z,20.55
2018-08-23T03:25:53.690Z,20.58
2018-08-23T03:26:53.718Z,20.53
2018-08-23T03:27:53.749Z,20.49
2018-08-23T03:28:53.787Z,20.49
2018-08-23T03:29:53.807Z,20.44
2018-08-23T03:30:53.832Z,20.39
2018-08-23T03:31:53.863Z,20.39
2018-08-23T03:32:53.891Z,20.39
2018-08-23T03:33:53.930Z,20.34
2018-08-23T03:34:53.955Z,20.37
2018-08-23T03:35:53.976Z,20.39
2018-08-23T03:36:54.008Z,20.37
2018-08-23T03:37:54.033Z,20.30
2018-08-23T03:38:54.061Z,20.40
2018-08-23T03:39:54.099Z,20.40
2018-08-23T03:40:54.121Z,20.37
2018-08-23T03:41:54.157Z,20.44
2018-08-23T03:42:54.188Z,20.42
2018-08-23T03:43:54.206Z,20.37
2018-08-23T03:44:54.236Z,20.24
2018-08-23T03:45:54.264Z,20.24
2018-08-23T03:46:54.293Z,20.21
2018-08-23T03:47:54.329Z,20.12
2018-08-23T03:48:54.377Z,20.21
2018-08-23T03:49:54.378Z,20.18
2018-08-23T03:50:54.414Z,20.32
2018-08-23T03:51:54.433Z,20.22
2018-08-23T03:52:54.544Z,20.24
2018-08-23T03:53:54.516Z,20.36
2018-08-23T03:54:54.531Z,20.36
2018-08-23T03:55:54.559Z,20.29
2018-08-23T03:56:54.583Z,20.36
2018-08-23T03:57:54.612Z,20.29
2018-08-23T03:58:54.636Z,20.33
2018-08-23T03:59:54.666Z,20.29
2018-08-23T04:00:54.692Z,20.37
2018-08-23T04:01:54.830Z,20.36
2018-08-23T04:02:54.768Z,20.26
2018-08-23T04:03:54.826Z,20.26
2018-08-23T04:04:54.809Z,20.19
2018-08-23T04:05:54.844Z,20.18
2018-08-23T04:06:54.861Z,20.08
2018-08-23T04:07:54.892Z,20.11
2018-08-23T04:08:54.920Z,20.10
2018-08-23T04:09:54.949Z,20.19
2018-08-23T04:10:54.979Z,20.26
2018-08-23T04:11:55.014Z,20.33
2018-08-23T04:12:55.541Z,20.40
2018-08-23T04:13:55.062Z,20.46
2018-08-23T04:14:55.106Z,20.56
2018-08-23T04:15:55.131Z,20.58
2018-08-23T04:16:55.151Z,20.44
2018-08-23T04:17:55.181Z,20.36
2018-08-23T04:18:55.231Z,20.32
2018-08-23T04:19:55.238Z,20.22
2018-08-23T04:20:55.262Z,20.30
2018-08-23T04:21:55.293Z,20.21
2018-08-23T04:22:55.393Z,20.27
2018-08-23T04:23:55.348Z,20.11
2018-08-23T04:24:55.384Z,20.12
2018-08-23T04:25:55.406Z,20.21
2018-08-23T04:26:55.435Z,20.11
2018-08-23T04:27:55.463Z,20.10
2018-08-23T04:28:55.488Z,20.11
2018-08-23T04:29:55.524Z,20.11
2018-08-23T04:30:55.549Z,20.15
2018-08-23T04:31:55.576Z,20.12
2018-08-23T04:32:55.615Z,20.14
2018-08-23T04:33:55.646Z,20.11
2018-08-23T04:34:55.671Z,20.21
2018-08-23T04:35:55.705Z,20.27
2018-08-23T04:36:55.728Z,20.17
2018-08-23T04:37:55.762Z,20.17
2018-08-23T04:38:55.776Z,20.26
2018-08-23T04:39:55.813Z,20.30
2018-08-23T04:40:55.834Z,20.27
2018-08-23T04:41:55.868Z,20.27
2018-08-23T04:42:55.893Z,20.22
2018-08-23T04:43:55.928Z,20.21
2018-08-23T04:44:55.945Z,20.24
2018-08-23T04:45:55.974Z,20.22
2018-08-23T04:46:56.004Z,20.34
2018-08-23T04:47:56.039Z,20.39
2018-08-23T04:48:56.064Z,20.32
2018-08-23T04:49:56.093Z,20.29
2018-08-23T04:50:56.116Z,20.32
2018-08-23T04:51:56.147Z,20.27
2018-08-23T04:52:56.183Z,20.24
2018-08-23T04:53:56.206Z,20.32
2018-08-23T04:54:56.235Z,20.44
2018-08-23T04:55:56.261Z,20.40
2018-08-23T04:56:56.303Z,20.44
2018-08-23T04:57:56.322Z,20.33
2018-08-23T04:58:56.349Z,20.33
2018-08-23T04:59:56.425Z,20.30
2018-08-23T05:00:56.412Z,20.39
2018-08-23T05:01:56.433Z,20.37
2018-08-23T05:02:56.468Z,20.44
2018-08-23T05:03:56.671Z,20.50
2018-08-23T05:04:56.522Z,20.42
2018-08-23T05:05:56.562Z,20.58
2018-08-23T05:06:56.572Z,20.39
2018-08-23T05:07:56.619Z,20.49
2018-08-23T05:08:56.635Z,20.40
2018-08-23T05:09:56.665Z,20.46
2018-08-23T05:10:56.699Z,20.53
2018-08-23T05:11:56.716Z,20.55
2018-08-23T05:12:56.767Z,20.55
2018-08-23T05:13:56.775Z,20.55
2018-08-23T05:14:56.900Z,20.53
2018-08-23T05:15:56.834Z,20.56
2018-08-23T05:16:56.861Z,20.60
2018-08-23T05:17:56.912Z,20.53
2018-08-23T05:18:56.929Z,20.66
2018-08-23T05:19:57.008Z,20.71
2018-08-23T05:20:56.983Z,20.59
2018-08-23T05:21:57.017Z,20.63
2018-08-23T05:22:57.036Z,20.67
2018-08-23T05:23:57.065Z,20.74
2018-08-23T05:24:57.112Z,20.70
2018-08-23T05:25:57.123Z,20.70
2018-08-23T05:26:57.152Z,20.73
2018-08-23T05:27:57.310Z,20.71
2018-08-23T05:28:57.345Z,20.74
2018-08-23T05:29:57.272Z,20.73
2018-08-23T05:30:57.258Z,20.83
2018-08-23T05:31:57.294Z,20.86
2018-08-23T05:32:57.321Z,20.85
2018-08-23T05:33:57.360Z,20.88
2018-08-23T05:34:57.376Z,20.92
2018-08-23T05:35:57.415Z,21.03
2018-08-23T05:36:57.453Z,20.93
2018-08-23T05:37:57.465Z,20.92
2018-08-23T05:38:57.507Z,20.96
2018-08-23T05:39:57.520Z,20.95
2018-08-23T05:40:57.552Z,20.96
2018-08-23T05:41:57.584Z,20.85
2018-08-23T05:42:57.669Z,21.04
2018-08-23T05:43:57.636Z,20.98
2018-08-23T05:44:57.658Z,21.07
2018-08-23T05:45:57.689Z,21.10
2018-08-23T05:46:57.731Z,21.14
2018-08-23T05:47:57.753Z,21.19
2018-08-23T05:48:57.787Z,21.08
2018-08-23T05:49:57.820Z,21.17
2018-08-23T05:50:57.834Z,21.20
2018-08-23T05:51:57.868Z,21.17
2018-08-23T05:52:57.891Z,21.14
2018-08-23T05:53:57.924Z,21.30
2018-08-23T05:54:57.963Z,21.33
2018-08-23T05:55:58.008Z,21.35
2018-08-23T05:56:58.033Z,21.29
2018-08-23T05:57:58.029Z,21.25
2018-08-23T05:58:58.056Z,21.35
2018-08-23T05:59:58.088Z,21.37
2018-08-23T06:00:58.116Z,21.35
2018-08-23T06:01:58.143Z,21.26
2018-08-23T06:02:58.193Z,21.29
2018-08-23T06:03:58.211Z,21.14
2018-08-23T06:04:58.231Z,21.20
2018-08-23T06:05:58.262Z,21.19
2018-08-23T06:06:58.307Z,21.22
2018-08-23T06:07:58.329Z,21.19
2018-08-23T06:08:58.353Z,21.19
2018-08-23T06:09:58.390Z,21.28
2018-08-23T06:10:58.403Z,21.26
2018-08-23T06:11:58.432Z,21.35
2018-08-23T06:12:58.469Z,21.25
2018-08-23T06:13:58.486Z,21.29
2018-08-23T06:14:58.525Z,21.30
2018-08-23T06:15:58.560Z,21.25
2018-08-23T06:16:58.656Z,21.22
2018-08-23T06:17:58.608Z,21.30
2018-08-23T06:18:58.636Z,21.29
2018-08-23T06:19:58.724Z,21.33
2018-08-23T06:20:58.692Z,21.32
2018-08-23T06:21:58.726Z,21.37
2018-08-23T06:22:58.746Z,21.40
2018-08-23T06:23:58.778Z,21.37
2018-08-23T06:24:58.817Z,21.47
2018-08-23T06:25:59.580Z,21.51
2018-08-23T06:26:58.887Z,21.50
2018-08-23T06:27:58.912Z,21.56
2018-08-23T06:28:58.939Z,21.62
2018-08-23T06:29:58.952Z,21.69
2018-08-23T06:30:58.994Z,21.66
2018-08-23T06:31:59.012Z,21.74
2018-08-23T06:32:59.141Z,21.69
2018-08-23T06:33:59.178Z,21.70
2018-08-23T06:34:59.095Z,21.77
2018-08-23T06:35:59.131Z,21.88
2018-08-23T06:36:59.172Z,21.83
2018-08-23T06:37:59.181Z,21.89
2018-08-23T06:38:59.242Z,21.89
2018-08-23T06:39:59.235Z,22.00
2018-08-23T06:40:59.267Z,22.04
2018-08-23T06:41:59.299Z,22.00
2018-08-23T06:42:59.321Z,22.01
2018-08-23T06:43:59.352Z,21.99
2018-08-23T06:44:59.390Z,22.08
2018-08-23T06:45:59.423Z,22.14
2018-08-23T06:46:59.443Z,22.07
2018-08-23T06:47:59.461Z,22.19
2018-08-23T06:48:59.580Z,22.23
2018-08-23T06:49:59.530Z,22.26
2018-08-23T06:50:59.565Z,22.23
2018-08-23T06:51:59.602Z,22.25
2018-08-23T06:52:59.618Z,22.28
2018-08-23T06:53:59.635Z,22.33
2018-08-23T06:54:59.667Z,22.37
2018-08-23T06:55:59.692Z,22.41
2018-08-23T06:56:59.728Z,22.46
2018-08-23T06:57:59.758Z,22.49
2018-08-23T06:58:59.850Z,22.52
2018-08-23T06:59:59.819Z,22.51
2018-08-23T07:00:59.848Z,22.46
2018-08-23T07:01:59.871Z,22.49
2018-08-23T07:02:59.892Z,22.47
2018-08-23T07:03:59.928Z,22.56
2018-08-23T07:04:59.966Z,22.59
2018-08-23T07:05:59.987Z,22.58
2018-08-23T07:07:00.034Z,22.62
2018-08-23T07:08:00.039Z,22.58
2018-08-23T07:09:00.085Z,22.56
2018-08-23T07:10:00.108Z,22.73
2018-08-23T07:11:00.135Z,22.68
2018-08-23T07:12:00.168Z,22.71
2018-08-23T07:13:00.193Z,22.73
2018-08-23T07:14:00.219Z,22.76
2018-08-23T07:15:00.244Z,22.73
2018-08-23T07:16:00.276Z,22.86
2018-08-23T07:17:00.303Z,22.81
2018-08-23T07:18:00.333Z,22.89
2018-08-23T07:19:00.357Z,22.91
2018-08-23T07:20:00.389Z,22.99
2018-08-23T07:21:00.435Z,23.01
2018-08-23T07:22:00.453Z,23.11
2018-08-23T07:23:00.478Z,23.13
2018-08-23T07:24:00.508Z,23.17
2018-08-23T07:25:00.534Z,23.14
2018-08-23T07:26:00.587Z,23.25
2018-08-23T07:27:00.598Z,23.34
2018-08-23T07:28:00.725Z,23.36
2018-08-23T07:29:00.652Z,23.48
2018-08-23T07:30:00.710Z,23.48
2018-08-23T07:31:00.732Z,23.56
2018-08-23T07:32:00.735Z,23.58
2018-08-23T07:33:00.833Z,23.69
2018-08-23T07:34:00.879Z,23.73
2018-08-23T07:35:00.831Z,23.82
2018-08-23T07:36:00.863Z,23.92
2018-08-23T07:37:00.897Z,24.01
2018-08-23T07:38:00.907Z,24.00
2018-08-23T07:39:00.942Z,24.07
2018-08-23T07:40:00.980Z,24.13
2018-08-23T07:41:01.002Z,24.18
2018-08-23T07:42:01.027Z,24.21
2018-08-23T07:43:01.135Z,24.48
2018-08-23T07:44:01.081Z,24.50
2018-08-23T07:45:01.135Z,24.55
2018-08-23T07:46:01.139Z,24.51
2018-08-23T07:47:01.171Z,24.50
2018-08-23T07:48:01.314Z,24.58
2018-08-23T07:49:01.250Z,24.50
2018-08-23T07:50:01.268Z,24.58
2018-08-23T07:51:01.302Z,24.56
2018-08-23T07:52:01.314Z,24.69
2018-08-23T07:53:01.390Z,24.66
2018-08-23T07:54:01.369Z,24.77
2018-08-23T07:55:01.405Z,24.69
2018-08-23T07:56:01.436Z,24.79
2018-08-23T07:57:01.462Z,24.74
2018-08-23T07:58:01.490Z,24.81
2018-08-23T07:59:01.539Z,24.84
2018-08-23T08:00:01.547Z,24.92
2018-08-23T08:01:01.582Z,24.92
2018-08-23T08:02:01.606Z,24.93
2018-08-23T08:03:01.653Z,25.01
2018-08-23T08:04:01.673Z,25.07
2018-08-23T08:05:01.718Z,25.16
2018-08-23T08:06:01.740Z,25.12
2018-08-23T08:07:01.759Z,25.21
2018-08-23T08:08:01.797Z,25.33
2018-08-23T08:09:01.817Z,25.40
2018-08-23T08:10:01.850Z,25.40
2018-08-23T08:11:01.883Z,25.54
2018-08-23T08:12:01.907Z,25.49
2018-08-23T08:13:01.951Z,25.56
2018-08-23T08:14:01.970Z,25.56
2018-08-23T08:15:02.134Z,25.52
2018-08-23T08:16:02.020Z,25.62
2018-08-23T08:17:02.050Z,25.61
2018-08-23T08:18:02.099Z,25.68
2018-08-23T08:19:02.118Z,25.92
2018-08-23T08:20:02.145Z,26.03
2018-08-23T08:21:02.242Z,26.01
2018-08-23T08:22:02.202Z,25.93
2018-08-23T08:23:02.238Z,26.06
2018-08-23T08:24:02.257Z,26.07
2018-08-23T08:25:02.286Z,26.07
2018-08-23T08:26:02.318Z,26.06
2018-08-23T08:27:02.362Z,26.11
2018-08-23T08:28:02.382Z,26.18
2018-08-23T08:29:02.417Z,26.22
2018-08-23T08:30:02.431Z,26.31
2018-08-23T08:31:02.464Z,26.34
2018-08-23T08:32:02.488Z,26.45
2018-08-23T08:33:02.522Z,26.45
2018-08-23T08:34:02.552Z,26.49
2018-08-23T08:35:02.590Z,26.60
2018-08-23T08:36:02.610Z,26.59
2018-08-23T08:37:02.644Z,26.61
2018-08-23T08:38:02.668Z,26.68
2018-08-23T08:39:02.706Z,26.73
2018-08-23T08:40:02.734Z,26.74
2018-08-23T08:41:02.781Z,26.88
2018-08-23T08:42:02.799Z,26.76
2018-08-23T08:43:02.823Z,26.82
2018-08-23T08:44:02.845Z,26.89
2018-08-23T08:45:02.874Z,26.98
2018-08-23T08:46:02.906Z,27.10
2018-08-23T08:47:02.949Z,27.18
2018-08-23T08:48:02.970Z,27.13
2018-08-23T08:49:02.996Z,27.20
2018-08-23T08:50:03.054Z,27.04
2018-08-23T08:51:03.072Z,27.22
2018-08-23T08:52:03.088Z,27.30
2018-08-23T08:53:03.130Z,27.43
2018-08-23T08:54:03.142Z,27.53
2018-08-23T08:55:03.184Z,27.63
2018-08-23T08:56:03.214Z,27.71
2018-08-23T08:57:03.238Z,27.58
2018-08-23T08:58:03.267Z,27.67
2018-08-23T08:59:03.407Z,27.58
2018-08-23T09:00:03.325Z,27.58
2018-08-23T09:01:03.354Z,27.67
2018-08-23T09:02:03.384Z,27.83
2018-08-23T09:03:03.473Z,27.76
2018-08-23T09:04:03.455Z,27.79
2018-08-23T09:05:03.473Z,27.91
2018-08-23T09:06:03.526Z,28.04
2018-08-23T09:07:03.535Z,28.18
2018-08-23T09:08:03.567Z,28.20
2018-08-23T09:09:03.604Z,28.23
2018-08-23T09:10:03.630Z,28.12
2018-08-23T09:11:03.658Z,28.19
2018-08-23T09:12:03.691Z,28.22
2018-08-23T09:13:03.720Z,28.10
2018-08-23T09:14:03.753Z,28.15
2018-08-23T09:15:03.785Z,28.10
2018-08-23T09:16:03.821Z,28.10
2018-08-23T09:17:03.835Z,28.15
2018-08-23T09:18:03.864Z,28.28
2018-08-23T09:19:03.893Z,28.38
2018-08-23T09:20:03.932Z,28.41
2018-08-23T09:21:03.957Z,28.41
2018-08-23T09:22:03.986Z,28.40
2018-08-23T09:23:04.026Z,28.56
2018-08-23T09:24:04.047Z,28.53
2018-08-23T09:25:04.112Z,28.52
2018-08-23T09:26:04.117Z,28.60
2018-08-23T09:27:04.188Z,28.56
2018-08-23T09:28:04.165Z,28.60
2018-08-23T09:29:04.198Z,28.59
2018-08-23T09:30:04.229Z,28.57
2018-08-23T09:31:04.264Z,28.65
2018-08-23T09:32:04.308Z,28.74
2018-08-23T09:33:04.335Z,28.84
2018-08-23T09:34:04.361Z,28.82
2018-08-23T09:35:04.424Z,28.94
2018-08-23T09:36:04.408Z,29.13
2018-08-23T09:37:04.442Z,29.12
2018-08-23T09:38:04.485Z,29.28
2018-08-23T09:39:04.501Z,29.20
2018-08-23T09:40:04.539Z,29.32
2018-08-23T09:41:04.576Z,29.43
2018-08-23T09:42:04.594Z,29.52
2018-08-23T09:43:04.781Z,29.67
2018-08-23T09:44:04.659Z,29.79
2018-08-23T09:45:04.683Z,29.89
2018-08-23T09:46:04.723Z,29.98
2018-08-23T09:47:04.752Z,30.27
2018-08-23T09:48:04.793Z,30.24
2018-08-23T09:49:04.806Z,30.33
2018-08-23T09:50:04.868Z,30.35
2018-08-23T09:51:04.889Z,30.24
2018-08-23T09:52:04.901Z,30.43
2018-08-23T09:53:04.929Z,30.49
2018-08-23T09:54:04.974Z,30.52
2018-08-23T09:55:04.999Z,30.70
2018-08-23T09:56:05.022Z,30.67
2018-08-23T09:57:05.220Z,30.52
2018-08-23T09:58:05.079Z,30.40
2018-08-23T09:59:05.116Z,30.48
2018-08-23T10:00:05.144Z,30.78
2018-08-23T10:01:05.182Z,31.20
2018-08-23T10:02:05.204Z,31.17
2018-08-23T10:03:05.242Z,31.54
2018-08-23T10:04:05.265Z,31.62
2018-08-23T10:05:05.298Z,32.09
2018-08-23T10:06:05.333Z,32.23
2018-08-23T10:07:05.365Z,32.86
2018-08-23T10:08:05.400Z,33.47
2018-08-23T10:09:05.421Z,34.11
2018-08-23T10:10:05.450Z,33.77
2018-08-23T10:11:05.480Z,33.95
2018-08-23T10:12:05.519Z,34.26
2018-08-23T10:13:05.542Z,35.00
2018-08-23T10:14:05.591Z,35.07
2018-08-23T10:15:05.606Z,35.61
2018-08-23T10:16:05.661Z,35.26
2018-08-23T10:17:05.671Z,35.57
2018-08-23T10:18:05.703Z,36.05
2018-08-23T10:19:05.739Z,35.86
2018-08-23T10:20:05.771Z,36.55
2018-08-23T10:21:05.798Z,37.16
2018-08-23T10:22:05.833Z,37.15
2018-08-23T10:23:05.855Z,37.19
2018-08-23T10:24:05.894Z,37.11
2018-08-23T10:25:05.926Z,36.69
2018-08-23T10:26:05.957Z,36.84
2018-08-23T10:27:05.979Z,36.62
2018-08-23T10:28:06.009Z,36.38
2018-08-23T10:29:06.044Z,35.42
2018-08-23T10:30:06.076Z,35.84
2018-08-23T10:31:06.113Z,36.38
2018-08-23T10:32:06.193Z,36.45
2018-08-23T10:33:06.174Z,36.59
2018-08-23T10:34:06.205Z,36.51
2018-08-23T10:35:06.238Z,36.55
2018-08-23T10:36:06.279Z,36.03
2018-08-23T10:37:06.295Z,35.59
2018-08-23T10:38:06.362Z,35.57
2018-08-23T10:39:06.370Z,35.82
2018-08-23T10:40:06.401Z,36.20
2018-08-23T10:41:06.431Z,36.32
2018-08-23T10:42:06.455Z,35.82
2018-08-23T10:43:06.492Z,35.63
2018-08-23T10:44:06.595Z,35.49
2018-08-23T10:45:06.561Z,35.61
2018-08-23T10:46:06.591Z,36.14
2018-08-23T10:47:06.622Z,36.20
2018-08-23T10:48:06.667Z,36.26
2018-08-23T10:49:06.692Z,37.16
2018-08-23T10:50:06.714Z,37.79
2018-08-23T10:51:06.902Z,37.95
2018-08-23T10:52:06.779Z,37.82
2018-08-23T10:53:06.811Z,38.17
2018-08-23T10:54:06.851Z,38.62
2018-08-23T10:55:06.876Z,39.05
2018-08-23T10:56:06.925Z,39.70
2018-08-23T10:57:06.944Z,39.98
2018-08-23T10:58:06.976Z,40.43
2018-08-23T10:59:07.103Z,39.46
2018-08-23T11:00:07.056Z,38.44
2018-08-23T11:01:07.092Z,38.81
2018-08-23T11:02:07.111Z,39.04
2018-08-23T11:03:07.148Z,38.85
2018-08-23T11:04:07.198Z,38.27
2018-08-23T11:05:07.220Z,38.42
2018-08-23T11:06:08.192Z,38.04
2018-08-23T11:07:07.280Z,38.53
2018-08-23T11:08:07.318Z,38.92
2018-08-23T11:09:07.350Z,39.61
2018-08-23T11:10:07.379Z,40.00
2018-08-23T11:11:07.412Z,40.54
2018-08-23T11:12:07.450Z,40.29
2018-08-23T11:13:07.483Z,39.80
2018-08-23T11:14:07.516Z,39.85
2018-08-23T11:15:07.553Z,40.64
2018-08-23T11:16:07.587Z,40.77
2018-08-23T11:17:07.673Z,40.69
2018-08-23T11:18:07.664Z,39.51
2018-08-23T11:19:07.695Z,39.59
2018-08-23T11:20:07.736Z,40.57
2018-08-23T11:21:07.764Z,40.61
2018-08-23T11:22:07.805Z,41.03
2018-08-23T11:23:07.887Z,41.07
2018-08-23T11:24:07.861Z,40.93
2018-08-23T11:25:07.904Z,41.78
2018-08-23T11:26:07.943Z,42.29
2018-08-23T11:27:07.982Z,41.46
2018-08-23T11:28:08.009Z,41.70
2018-08-23T11:29:08.049Z,40.66
2018-08-23T11:30:08.087Z,40.69
2018-08-23T11:31:08.128Z,40.48
2018-08-23T11:32:08.156Z,40.46
2018-08-23T11:33:08.207Z,40.99
2018-08-23T11:34:08.228Z,42.21
2018-08-23T11:35:08.334Z,41.37
2018-08-23T11:36:08.317Z,41.68
2018-08-23T11:37:08.345Z,41.49
2018-08-23T11:38:08.379Z,41.10
2018-08-23T11:39:08.414Z,40.54
2018-08-23T11:40:08.457Z,40.43
2018-08-23T11:41:08.502Z,40.48
2018-08-23T11:42:08.524Z,40.19
2018-08-23T11:43:08.575Z,39.94
2018-08-23T11:44:08.618Z,40.73
2018-08-23T11:45:08.644Z,41.26
2018-08-23T11:46:08.682Z,41.42
2018-08-23T11:47:08.723Z,40.90
2018-08-23T11:48:08.776Z,40.66
2018-08-23T11:49:08.805Z,40.36
2018-08-23T11:50:08.844Z,39.15
2018-08-23T11:51:08.884Z,38.81
2018-08-23T11:52:08.911Z,38.70
2018-08-23T11:53:08.996Z,37.98
2018-08-23T11:54:08.997Z,38.09
2018-08-23T11:55:09.022Z,37.60
2018-08-23T11:56:09.059Z,37.03
2018-08-23T11:57:09.102Z,36.35
2018-08-23T11:58:09.235Z,35.79
2018-08-23T11:59:09.220Z,35.78
2018-08-23T12:00:09.208Z,35.69
2018-08-23T12:01:09.239Z,35.64
2018-08-23T12:02:09.266Z,35.53
2018-08-23T12:03:09.313Z,35.26
2018-08-23T12:04:09.339Z,35.12
2018-08-23T12:05:09.372Z,34.75
2018-08-23T12:06:09.398Z,34.07
2018-08-23T12:07:09.480Z,33.81
2018-08-23T12:08:09.471Z,33.73
2018-08-23T12:09:09.519Z,33.76
2018-08-23T12:10:09.535Z,33.47
2018-08-23T12:11:09.572Z,33.36
2018-08-23T12:12:09.630Z,33.01
2018-08-23T12:13:09.634Z,33.12
2018-08-23T12:14:09.678Z,33.44
2018-08-23T12:15:09.696Z,33.32
2018-08-23T12:16:09.742Z,33.20
2018-08-23T12:17:09.761Z,33.28
2018-08-23T12:18:09.796Z,33.16
2018-08-23T12:19:09.837Z,33.28
2018-08-23T12:20:09.864Z,33.13
2018-08-23T12:21:09.895Z,32.98
2018-08-23T12:22:09.927Z,32.98
2018-08-23T12:23:09.964Z,32.95
2018-08-23T12:24:09.993Z,32.75
2018-08-23T12:25:10.040Z,32.72
2018-08-23T12:26:10.080Z,32.66
2018-08-23T12:27:10.100Z,32.53
2018-08-23T12:28:10.131Z,32.37
2018-08-23T12:29:10.155Z,32.29
2018-08-23T12:30:10.201Z,32.39
2018-08-23T12:31:10.230Z,32.53
2018-08-23T12:32:10.274Z,32.49
2018-08-23T12:33:10.285Z,32.51
2018-08-23T12:34:10.369Z,32.49
2018-08-23T12:35:10.352Z,32.39
2018-08-23T12:36:10.391Z,32.53
2018-08-23T12:37:10.414Z,32.49
2018-08-23T12:38:10.447Z,32.54
2018-08-23T12:39:10.497Z,32.42
2018-08-23T12:40:10.510Z,32.49
2018-08-23T12:41:10.555Z,32.37
2018-08-23T12:42:10.585Z,32.53
2018-08-23T12:43:10.609Z,32.44
2018-08-23T12:44:10.637Z,32.54
2018-08-23T12:45:10.816Z,32.46
2018-08-23T12:46:10.705Z,32.46
2018-08-23T12:47:10.734Z,32.46
2018-08-23T12:48:10.771Z,32.38
2018-08-23T12:49:10.809Z,32.27
2018-08-23T12:50:10.839Z,32.27
2018-08-23T12:51:10.862Z,32.35
2018-08-23T12:52:10.901Z,32.30
2018-08-23T12:53:10.963Z,32.44